Time;durP1;ratioP1;P1;durP2;ratioP2;P2;SDS_P1;SDS_P2;PMS_P1;PMS_P2;Temp;Humidity;BMP_temperature;BMP_pressure;BME280_temperature;BME280_humidity;BME280_pressure;Samples;Min_cycle;Max_cycle;Signal;HPM_P1;HPM_P2
2022/01/12 00:00:17;;;;;;;6.65;3.55;;;3.10;99.90;;;;;;5029891;28;20022;-87
2022/01/12 00:02:44;;;;;;;5.22;3.45;;;2.90;99.90;;;;;;5028345;28;20048;-86
2022/01/12 00:05:10;;;;;;;5.53;3.55;;;2.90;99.90;;;;;;5028027;28;20029;-86
2022/01/12 00:07:35;;;;;;;7.35;4.10;;;2.80;99.90;;;;;;5026621;28;20032;-86
2022/01/12 00:10:01;;;;;;;9.57;4.53;;;2.70;99.90;;;;;;5027214;28;27821;-87
2022/01/12 00:12:27;;;;;;;9.85;4.95;;;2.60;99.90;;;;;;5028319;28;20030;-87
2022/01/12 00:14:53;;;;;;;9.68;4.68;;;2.70;99.90;;;;;;5027085;28;20036;-87
2022/01/12 00:17:19;;;;;;;6.90;4.35;;;2.80;99.90;;;;;;5027988;28;20025;-87
2022/01/12 00:19:45;;;;;;;6.70;3.72;;;2.90;99.90;;;;;;5027084;28;20029;-87
2022/01/12 00:22:12;;;;;;;7.32;3.80;;;2.80;99.90;;;;;;5031421;28;20033;-87
2022/01/12 00:33:10;;;;;;;8.75;3.92;;;2.90;99.90;;;;;;5031592;28;20075;-86
2022/01/12 00:35:36;;;;;;;6.60;3.95;;;2.80;99.90;;;;;;5029670;28;20040;-85
2022/01/12 00:38:02;;;;;;;6.55;4.38;;;2.80;99.90;;;;;;5031008;28;20083;-86
2022/01/12 00:40:28;;;;;;;4.43;3.35;;;2.90;99.90;;;;;;5031408;28;20459;-87
2022/01/12 00:42:54;;;;;;;6.38;3.35;;;2.80;99.90;;;;;;5016394;28;20375;-87
2022/01/12 00:45:20;;;;;;;5.70;3.45;;;2.80;99.90;;;;;;5032343;28;20410;-86
2022/01/12 00:47:47;;;;;;;6.85;3.85;;;2.80;99.90;;;;;;5031199;28;20116;-86
2022/01/12 00:50:13;;;;;;;4.88;3.47;;;2.80;99.90;;;;;;5030935;28;20084;-87
2022/01/12 00:52:39;;;;;;;5.70;3.83;;;2.80;99.90;;;;;;5029505;28;20449;-87
2022/01/12 00:55:05;;;;;;;6.55;3.63;;;2.80;99.90;;;;;;5031250;28;20446;-86
2022/01/12 00:57:31;;;;;;;4.55;3.00;;;2.80;99.90;;;;;;5032533;28;20018;-87
2022/01/12 00:59:57;;;;;;;6.25;3.85;;;2.70;99.90;;;;;;5030003;28;20034;-87
2022/01/12 01:02:23;;;;;;;7.30;3.75;;;2.70;99.90;;;;;;5030657;28;20432;-87
2022/01/12 01:04:48;;;;;;;6.03;4.32;;;2.70;99.90;;;;;;5030245;28;20446;-87
2022/01/12 01:07:14;;;;;;;5.38;3.20;;;2.40;99.90;;;;;;5030808;28;20036;-86
2022/01/12 01:09:46;;;;;;;7.68;3.58;;;2.60;99.90;;;;;;5029726;28;20018;-86
2022/01/12 01:12:12;;;;;;;5.05;3.22;;;2.50;99.90;;;;;;5032006;28;20056;-87
2022/01/12 01:14:48;;;;;;;7.43;3.80;;;2.30;99.90;;;;;;5028724;28;20057;-87
2022/01/12 01:25:31;;;;;;;3.70;2.88;;;2.30;99.90;;;;;;5018097;28;20040;-87
2022/01/12 01:27:57;;;;;;;3.20;2.70;;;2.40;99.90;;;;;;5030040;28;20581;-87
2022/01/12 01:30:22;;;;;;;3.40;2.65;;;2.40;99.90;;;;;;5031704;28;20529;-88
2022/01/12 01:32:49;;;;;;;4.13;2.63;;;2.50;99.90;;;;;;5030105;28;20407;-89
2022/01/12 01:35:14;;;;;;;4.18;3.20;;;2.30;99.90;;;;;;5030639;28;20025;-88
2022/01/12 01:37:41;;;;;;;4.75;3.08;;;2.30;99.90;;;;;;5030601;28;20037;-88
2022/01/12 01:40:13;;;;;;;3.88;2.70;;;2.40;99.90;;;;;;5030441;28;20048;-88
2022/01/12 01:53:30;;;;;;;4.10;2.70;;;2.20;99.90;;;;;;5029505;28;20041;-88
2022/01/12 01:55:55;;;;;;;5.28;2.58;;;2.10;99.90;;;;;;5030341;28;20147;-90
2022/01/12 01:58:21;;;;;;;4.65;2.38;;;2.20;99.90;;;;;;5030521;28;20108;-88
2022/01/12 02:00:47;;;;;;;2.38;2.00;;;2.10;99.90;;;;;;5029992;28;20025;-88
2022/01/12 02:03:13;;;;;;;2.78;2.13;;;2.10;99.90;;;;;;5031497;28;20025;-88
2022/01/12 02:05:42;;;;;;;4.07;2.33;;;2.00;99.90;;;;;;5028431;28;20061;-87
2022/01/12 02:08:09;;;;;;;4.47;2.40;;;2.10;99.90;;;;;;5029620;28;20029;-88
2022/01/12 02:10:35;;;;;;;3.92;3.03;;;2.10;99.90;;;;;;5028935;28;20025;-88
2022/01/12 02:13:01;;;;;;;3.65;2.10;;;2.10;99.90;;;;;;5019668;28;20506;-89
2022/01/12 02:15:27;;;;;;;6.30;3.20;;;2.20;99.90;;;;;;5018985;28;20025;-89
2022/01/12 02:35:36;;;;;;;6.05;3.22;;;1.90;99.90;;;;;;5029755;28;20136;-89
2022/01/12 02:40:21;;;;;;;4.88;3.28;;;1.90;99.90;;;;;;5029309;28;20427;-89
2022/01/12 02:42:56;;;;;;;7.25;3.30;;;1.90;99.90;;;;;;5030031;28;20029;-90
2022/01/12 02:53:42;;;;;;;4.32;2.97;;;1.70;99.90;;;;;;5029588;28;20033;-89
2022/01/12 02:56:29;;;;;;;4.25;2.75;;;1.70;99.90;;;;;;5030511;28;20033;-91
2022/01/12 02:58:58;;;;;;;3.40;2.58;;;1.60;99.90;;;;;;5030041;28;20018;-90
2022/01/12 03:03:53;;;;;;;4.45;2.47;;;1.70;99.90;;;;;;5030594;28;20045;-91
2022/01/12 03:06:23;;;;;;;4.93;2.85;;;1.70;99.90;;;;;;5031490;28;20040;-91
2022/01/12 03:08:50;;;;;;;4.07;2.65;;;1.70;99.90;;;;;;5029728;28;20112;-91
2022/01/12 03:11:18;;;;;;;4.18;2.75;;;1.70;99.90;;;;;;5030480;28;20021;-92
2022/01/12 03:13:44;;;;;;;3.97;3.00;;;1.70;99.90;;;;;;5029968;28;21140;-91
2022/01/12 03:16:18;;;;;;;6.07;3.40;;;1.70;99.90;;;;;;5029993;28;20112;-91
2022/01/12 03:18:49;;;;;;;7.32;2.97;;;1.60;99.90;;;;;;5029659;28;20025;-90
2022/01/12 03:21:17;;;;;;;5.47;3.28;;;1.60;99.90;;;;;;5031304;28;20113;-90
2022/01/12 03:23:43;;;;;;;5.60;3.70;;;1.40;99.90;;;;;;5029799;28;20041;-90
2022/01/12 03:26:10;;;;;;;4.95;3.50;;;1.50;99.90;;;;;;5028993;28;20420;-90
2022/01/12 03:28:40;;;;;;;4.47;3.20;;;1.50;99.90;;;;;;5028879;28;20071;-91
2022/01/12 03:31:20;;;;;;;6.17;3.53;;;1.50;99.90;;;;;;5029731;28;20029;-90
2022/01/12 03:36:25;;;;;;;5.63;3.40;;;1.40;99.90;;;;;;5030909;28;20025;-91
2022/01/12 03:39:04;;;;;;;5.43;2.97;;;1.30;99.90;;;;;;5029001;28;20068;-91
2022/01/12 03:41:32;;;;;;;5.15;3.13;;;1.20;99.90;;;;;;5029416;28;20034;-91
2022/01/12 03:44:00;;;;;;;5.18;3.00;;;1.10;99.90;;;;;;5028468;28;20024;-92
2022/01/12 03:46:28;;;;;;;6.65;3.28;;;1.00;99.90;;;;;;5029712;28;20033;-92
2022/01/12 03:48:54;;;;;;;7.35;3.95;;;0.90;99.90;;;;;;5021570;28;20027;-92
2022/01/12 03:51:19;;;;;;;5.80;3.50;;;1.10;99.90;;;;;;5021053;28;20407;-92
2022/01/12 03:53:45;;;;;;;5.05;3.42;;;1.10;99.90;;;;;;5028957;28;20060;-89
2022/01/12 03:56:11;;;;;;;7.18;4.00;;;1.00;99.90;;;;;;5033005;28;20029;-89
2022/01/12 03:58:37;;;;;;;5.57;3.40;;;1.20;99.90;;;;;;5033196;28;20038;-89
2022/01/12 04:01:03;;;;;;;5.93;3.88;;;1.40;99.90;;;;;;5029622;28;20037;-89
2022/01/12 04:03:30;;;;;;;5.80;3.20;;;1.50;99.90;;;;;;5033955;28;20152;-88
2022/01/12 04:08:40;;;;;;;5.18;3.17;;;1.40;99.90;;;;;;5032256;28;20036;-89
2022/01/12 04:11:05;;;;;;;4.78;2.85;;;1.40;99.90;;;;;;5031777;28;20029;-88
2022/01/12 04:13:32;;;;;;;5.95;3.10;;;1.30;99.90;;;;;;5030447;28;20028;-88
2022/01/12 04:16:06;;;;;;;4.63;3.22;;;1.40;99.90;;;;;;5030695;28;20037;-88
2022/01/12 04:18:32;;;;;;;5.25;3.67;;;1.50;99.90;;;;;;5033004;28;20198;-87
2022/01/12 04:21:01;;;;;;;5.50;3.10;;;1.50;99.90;;;;;;5025708;28;20056;-88
2022/01/12 04:23:27;;;;;;;5.25;3.72;;;1.50;99.90;;;;;;5025072;28;20034;-87
2022/01/12 04:25:56;;;;;;;6.47;3.10;;;1.50;99.90;;;;;;5030503;28;20034;-87
2022/01/12 04:28:23;;;;;;;3.25;2.50;;;1.40;99.90;;;;;;5031470;28;20494;-87
2022/01/12 04:30:50;;;;;;;5.88;2.92;;;1.40;99.90;;;;;;5031613;28;20040;-86
2022/01/12 04:33:17;;;;;;;7.03;3.13;;;1.50;99.90;;;;;;5032992;28;20060;-86
2022/01/12 04:35:49;;;;;;;6.10;3.42;;;1.40;99.90;;;;;;5030990;28;20172;-86
2022/01/12 04:38:17;;;;;;;5.88;3.05;;;1.50;99.90;;;;;;5031094;28;20021;-86
2022/01/12 04:40:43;;;;;;;5.65;3.13;;;1.30;99.90;;;;;;5031061;28;20050;-87
2022/01/12 04:43:10;;;;;;;4.70;2.88;;;0.90;99.90;;;;;;5031496;28;20025;-88
2022/01/12 04:45:46;;;;;;;5.20;3.65;;;0.90;99.90;;;;;;5024888;28;20268;-88
2022/01/12 04:50:42;;;;;;;6.05;3.50;;;1.30;99.90;;;;;;5030895;28;20026;-87
2022/01/12 04:53:07;;;;;;;4.53;3.28;;;1.30;99.90;;;;;;5030849;28;20058;-86
2022/01/12 04:55:34;;;;;;;4.53;2.97;;;1.30;99.90;;;;;;5030086;28;20406;-86
2022/01/12 04:58:00;;;;;;;5.72;3.65;;;1.20;99.90;;;;;;5029484;28;20033;-85
2022/01/12 05:00:26;;;;;;;6.32;3.70;;;1.30;99.90;;;;;;5032667;28;20387;-86
2022/01/12 05:08:38;;;;;;;4.82;3.47;;;1.00;99.90;;;;;;5030055;28;20048;-85
2022/01/12 05:13:50;;;;;;;9.23;3.63;;;0.60;99.90;;;;;;5024785;28;20387;-85
2022/01/12 05:16:17;;;;;;;5.45;3.42;;;0.70;99.90;;;;;;5030739;28;20032;-86
2022/01/12 05:18:44;;;;;;;6.10;3.88;;;0.70;99.90;;;;;;5031112;28;20487;-85
2022/01/12 05:21:12;;;;;;;6.28;3.78;;;0.70;99.90;;;;;;5032396;28;20084;-84
2022/01/12 05:23:38;;;;;;;4.13;3.17;;;0.70;99.90;;;;;;5029934;28;20124;-84
2022/01/12 05:26:05;;;;;;;5.13;3.28;;;0.80;99.90;;;;;;5029366;28;20056;-84
2022/01/12 05:28:31;;;;;;;6.50;3.92;;;0.90;99.90;;;;;;5030411;28;20034;-84
2022/01/12 05:30:58;;;;;;;5.57;3.40;;;1.00;99.90;;;;;;5030493;28;20051;-84
2022/01/12 05:33:25;;;;;;;6.28;3.67;;;0.80;99.90;;;;;;5031516;28;20025;-85
2022/01/12 05:36:05;;;;;;;6.63;3.65;;;1.00;99.90;;;;;;5029539;28;20513;-85
2022/01/12 05:38:31;;;;;;;7.03;4.43;;;1.10;99.90;;;;;;5030307;28;20061;-85
2022/01/12 05:41:00;;;;;;;8.25;3.88;;;1.10;99.90;;;;;;5029604;28;20037;-85
2022/01/12 05:43:29;;;;;;;6.55;4.07;;;1.10;99.90;;;;;;5030314;28;20079;-85
2022/01/12 05:46:25;;;;;;;5.93;3.58;;;1.10;99.90;;;;;;5029031;28;20490;-85
2022/01/12 05:51:32;;;;;;;5.35;3.45;;;1.10;99.90;;;;;;5031694;28;20076;-85
2022/01/12 05:53:57;;;;;;;4.22;3.13;;;1.20;99.90;;;;;;5019432;28;20030;-85
2022/01/12 05:56:24;;;;;;;5.28;3.30;;;1.20;99.90;;;;;;5026900;28;20407;-84
2022/01/12 05:58:50;;;;;;;7.25;3.55;;;1.20;99.90;;;;;;5029190;28;20021;-85
2022/01/12 06:01:20;;;;;;;5.30;3.42;;;1.20;99.90;;;;;;5029821;28;20029;-84
2022/01/12 06:03:45;;;;;;;5.90;3.88;;;1.10;99.90;;;;;;5029391;28;20033;-84
2022/01/12 06:06:11;;;;;;;5.82;3.33;;;1.10;99.90;;;;;;5031090;28;20033;-84
2022/01/12 06:08:37;;;;;;;5.32;3.38;;;1.20;99.90;;;;;;5027978;28;20026;-84
2022/01/12 06:11:03;;;;;;;5.63;3.85;;;1.20;99.90;;;;;;5029208;28;20457;-84
2022/01/12 06:13:28;;;;;;;6.20;3.92;;;1.20;99.90;;;;;;5029420;28;20392;-84
2022/01/12 06:15:54;;;;;;;6.95;3.75;;;1.20;99.90;;;;;;5029415;28;20029;-84
2022/01/12 06:18:20;;;;;;;5.13;3.28;;;1.30;99.90;;;;;;5028796;28;20395;-84
2022/01/12 06:20:46;;;;;;;5.55;3.70;;;1.30;99.90;;;;;;5028727;28;20041;-84
2022/01/12 06:23:12;;;;;;;4.32;2.90;;;1.30;99.90;;;;;;5029096;28;20013;-84
2022/01/12 06:25:37;;;;;;;5.20;4.00;;;1.30;99.90;;;;;;5027835;28;20466;-85
2022/01/12 06:33:34;;;;;;;6.55;4.32;;;1.10;99.90;;;;;;5031244;28;20059;-85
2022/01/12 06:35:59;;;;;;;5.90;3.63;;;1.00;99.90;;;;;;5028849;28;20037;-84
2022/01/12 06:38:25;;;;;;;7.18;4.43;;;1.00;99.90;;;;;;5028822;28;20037;-85
2022/01/12 06:40:51;;;;;;;5.43;3.50;;;1.00;99.90;;;;;;5027207;28;20127;-85
2022/01/12 06:43:17;;;;;;;8.23;4.40;;;0.90;99.90;;;;;;5028904;28;20091;-84
2022/01/12 06:45:43;;;;;;;6.20;3.78;;;0.90;99.90;;;;;;5028149;28;20045;-83
2022/01/12 06:48:08;;;;;;;6.93;4.40;;;0.90;99.90;;;;;;5029062;28;20042;-84
2022/01/12 06:50:35;;;;;;;6.10;3.88;;;0.90;99.90;;;;;;5027179;28;20033;-84
2022/01/12 06:53:00;;;;;;;7.57;4.72;;;0.80;99.90;;;;;;5027005;28;20107;-84
2022/01/12 06:55:26;;;;;;;5.60;4.47;;;0.90;99.90;;;;;;5028584;28;20503;-83
2022/01/12 06:57:51;;;;;;;7.75;4.95;;;0.80;99.90;;;;;;5028930;28;20037;-84
2022/01/12 07:00:17;;;;;;;10.07;4.82;;;0.70;99.90;;;;;;5027798;28;20418;-84
2022/01/12 07:02:43;;;;;;;9.32;5.22;;;0.70;99.90;;;;;;5028009;28;20104;-81
2022/01/12 07:05:09;;;;;;;7.03;4.75;;;0.50;99.90;;;;;;5026989;28;20029;-84
2022/01/12 07:07:34;;;;;;;9.98;5.20;;;0.50;99.90;;;;;;5028507;28;20266;-83
2022/01/12 07:10:02;;;;;;;8.57;5.57;;;0.40;99.90;;;;;;5028623;28;20454;-84
2022/01/12 07:12:28;;;;;;;7.32;4.65;;;0.30;99.90;;;;;;5028069;28;20021;-84
2022/01/12 07:14:54;;;;;;;7.15;4.65;;;0.30;99.90;;;;;;5026231;28;20418;-84
2022/01/12 07:17:20;;;;;;;8.48;5.63;;;0.30;99.90;;;;;;5027748;28;20017;-85
2022/01/12 07:19:46;;;;;;;6.57;4.45;;;0.20;99.90;;;;;;5028069;28;20100;-84
2022/01/12 07:22:12;;;;;;;8.77;4.70;;;0.10;99.90;;;;;;5027421;28;20124;-84
2022/01/12 07:24:37;;;;;;;8.10;4.68;;;0.10;99.90;;;;;;5026047;28;20033;-83
2022/01/12 07:27:04;;;;;;;7.35;4.50;;;0.10;99.90;;;;;;5026026;28;20029;-84
2022/01/12 07:29:29;;;;;;;7.55;5.10;;;0.10;99.90;;;;;;5023352;28;20035;-83
2022/01/12 07:31:55;;;;;;;9.07;5.07;;;0.10;99.90;;;;;;5024513;28;20021;-82
2022/01/12 07:34:21;;;;;;;9.75;5.55;;;0.30;99.90;;;;;;5027988;28;20379;-83
2022/01/12 07:36:46;;;;;;;10.23;5.88;;;0.30;99.90;;;;;;5018398;28;20433;-83
2022/01/12 07:39:12;;;;;;;9.75;5.45;;;0.30;99.90;;;;;;5028462;28;20462;-85
2022/01/12 07:41:38;;;;;;;11.63;6.72;;;0.50;99.90;;;;;;5027844;28;20033;-86
2022/01/12 07:44:04;;;;;;;8.90;6.45;;;0.50;99.90;;;;;;5027790;28;20128;-87
2022/01/12 07:46:30;;;;;;;10.18;5.65;;;0.40;99.90;;;;;;5028457;28;20026;-88
2022/01/12 07:48:55;;;;;;;10.88;5.93;;;0.60;99.90;;;;;;5026815;28;20032;-87
2022/01/12 07:51:21;;;;;;;11.55;6.00;;;0.70;99.90;;;;;;5027531;28;20454;-87
2022/01/12 07:53:47;;;;;;;9.85;6.18;;;0.70;99.90;;;;;;5024901;28;20096;-78
2022/01/12 07:56:13;;;;;;;10.82;5.88;;;1.50;99.90;;;;;;5026650;28;20411;-81
2022/01/12 07:58:38;;;;;;;11.13;6.60;;;1.60;99.90;;;;;;5026236;28;20037;-81
2022/01/12 08:01:04;;;;;;;13.45;6.60;;;2.20;99.90;;;;;;5025580;28;20107;-79
2022/01/12 08:03:30;;;;;;;10.02;6.68;;;2.80;99.90;;;;;;5026170;28;20410;-80
2022/01/12 08:05:59;;;;;;;10.50;6.82;;;3.60;99.90;;;;;;5025965;28;20021;-87
2022/01/12 08:08:25;;;;;;;9.80;6.63;;;4.10;99.90;;;;;;5021940;28;20037;-81
2022/01/12 08:10:50;;;;;;;11.48;5.85;;;3.70;99.90;;;;;;5024463;28;20151;-81
2022/01/12 08:13:16;;;;;;;10.18;5.88;;;3.90;99.90;;;;;;5009418;28;20032;-84
2022/01/12 08:15:42;;;;;;;10.80;6.43;;;2.40;99.90;;;;;;5027874;28;20053;-83
2022/01/12 08:18:07;;;;;;;8.88;5.90;;;2.10;99.90;;;;;;5026931;28;20120;-83
2022/01/12 08:20:34;;;;;;;11.80;6.65;;;1.90;99.90;;;;;;5026736;28;20036;-85
2022/01/12 08:22:59;;;;;;;9.07;6.13;;;1.60;99.90;;;;;;5016955;28;20495;-85
2022/01/12 08:25:25;;;;;;;12.40;7.03;;;1.00;99.90;;;;;;5022956;28;20095;-81
2022/01/12 08:27:51;;;;;;;13.32;7.43;;;0.70;99.90;;;;;;5025030;28;20284;-82
2022/01/12 08:30:21;;;;;;;10.07;6.63;;;0.40;99.90;;;;;;5028486;28;20024;-82
2022/01/12 08:32:49;;;;;;;11.07;7.05;;;0.40;99.90;;;;;;5022661;28;20109;-82
2022/01/12 08:35:16;;;;;;;11.77;7.45;;;0.20;99.90;;;;;;5026577;28;20025;-81
2022/01/12 08:37:42;;;;;;;14.18;7.95;;;0.30;99.90;;;;;;5025320;28;20071;-82
2022/01/12 08:40:09;;;;;;;13.15;7.03;;;0.30;99.90;;;;;;5019546;28;20046;-83
2022/01/12 08:42:35;;;;;;;11.90;7.40;;;0.30;99.90;;;;;;5031193;28;20498;-84
2022/01/12 08:45:02;;;;;;;13.68;7.63;;;0.40;99.90;;;;;;5031118;28;20042;-83
2022/01/12 08:47:29;;;;;;;12.75;7.65;;;0.50;99.90;;;;;;5025326;28;20051;-82
2022/01/12 08:49:54;;;;;;;13.95;7.75;;;0.40;99.90;;;;;;5030854;28;20108;-82
2022/01/12 08:52:22;;;;;;;15.48;8.85;;;0.50;99.90;;;;;;5030701;28;20116;-80
2022/01/12 08:54:48;;;;;;;14.40;8.23;;;0.50;99.90;;;;;;5030498;28;20212;-80
2022/01/12 08:57:14;;;;;;;14.95;9.10;;;0.40;99.90;;;;;;5032026;28;20442;-82
2022/01/12 08:59:39;;;;;;;13.82;7.10;;;0.50;99.90;;;;;;5029281;28;20068;-80
2022/01/12 09:02:08;;;;;;;10.68;7.10;;;0.60;99.90;;;;;;5028042;28;20036;-84
2022/01/12 09:04:34;;;;;;;14.50;7.57;;;1.00;99.90;;;;;;5028106;28;20041;-82
2022/01/12 09:07:00;;;;;;;12.18;7.20;;;1.10;99.90;;;;;;5028888;28;20018;-84
2022/01/12 09:09:26;;;;;;;12.85;7.43;;;0.70;99.90;;;;;;5020819;28;20036;-82
2022/01/12 09:11:52;;;;;;;14.15;7.65;;;0.70;99.90;;;;;;5027802;28;20028;-80
2022/01/12 09:14:18;;;;;;;10.30;6.32;;;0.70;99.90;;;;;;5022191;28;20026;-80
2022/01/12 09:16:50;;;;;;;10.75;6.70;;;0.80;99.90;;;;;;5029503;28;20029;-81
2022/01/12 09:19:15;;;;;;;12.07;6.88;;;0.90;99.90;;;;;;5030209;28;20036;-83
2022/01/12 09:21:41;;;;;;;11.85;6.40;;;0.80;99.90;;;;;;5022134;28;20419;-81
2022/01/12 09:24:07;;;;;;;11.82;6.47;;;1.00;99.90;;;;;;5030096;28;20068;-81
2022/01/12 09:26:33;;;;;;;11.13;6.47;;;1.00;99.90;;;;;;5026046;28;20045;-79
2022/01/12 09:29:00;;;;;;;11.13;7.25;;;1.20;99.90;;;;;;5027912;28;20450;-82
2022/01/12 09:31:25;;;;;;;15.35;7.20;;;1.20;99.90;;;;;;5027880;28;20034;-82
2022/01/12 09:33:51;;;;;;;11.38;7.10;;;1.10;99.90;;;;;;5027570;28;20505;-81
2022/01/12 09:36:17;;;;;;;14.20;7.60;;;1.20;99.90;;;;;;5029922;28;20502;-80
2022/01/12 09:38:43;;;;;;;12.02;7.35;;;1.10;99.90;;;;;;5028668;28;20026;-82
2022/01/12 09:41:08;;;;;;;12.30;6.55;;;1.20;99.90;;;;;;5026598;28;20458;-81
2022/01/12 09:43:36;;;;;;;11.75;7.32;;;1.20;99.90;;;;;;5027007;28;20552;-81
2022/01/12 09:46:02;;;;;;;13.35;7.80;;;1.30;99.90;;;;;;5027271;28;20033;-81
2022/01/12 09:48:33;;;;;;;14.93;8.23;;;1.30;99.90;;;;;;5030581;28;20100;-80
2022/01/12 09:51:03;;;;;;;13.93;8.60;;;1.30;99.90;;;;;;5028211;28;20029;-85
2022/01/12 09:53:30;;;;;;;12.88;7.40;;;1.30;99.90;;;;;;5022382;28;20029;-85
2022/01/12 09:55:56;;;;;;;13.68;8.15;;;1.50;99.90;;;;;;5027084;28;20044;-85
2022/01/12 09:58:22;;;;;;;13.70;7.88;;;1.70;99.90;;;;;;5019257;28;20044;-82
2022/01/12 10:00:59;;;;;;;15.63;8.07;;;1.40;99.90;;;;;;5028778;28;20036;-86
2022/01/12 10:03:25;;;;;;;15.85;8.52;;;1.20;99.90;;;;;;5028277;28;20026;-85
2022/01/12 10:05:51;;;;;;;14.52;8.73;;;1.50;99.90;;;;;;5025610;28;20029;-84
2022/01/12 10:08:17;;;;;;;13.27;8.20;;;1.60;99.90;;;;;;5026534;28;20075;-90
2022/01/12 10:11:00;;;;;;;15.55;7.90;;;1.80;99.90;;;;;;5026188;28;20414;-89
2022/01/12 10:13:26;;;;;;;15.52;7.78;;;1.80;99.90;;;;;;5014220;28;20037;-88
2022/01/12 10:15:54;;;;;;;14.48;8.50;;;1.90;99.90;;;;;;5020576;28;20441;-86
2022/01/12 10:18:22;;;;;;;13.68;7.90;;;1.80;99.90;;;;;;5032670;28;20136;-86
2022/01/12 10:20:49;;;;;;;12.15;8.05;;;1.70;99.90;;;;;;5025167;28;20037;-84
2022/01/12 10:23:15;;;;;;;13.57;7.60;;;1.60;99.90;;;;;;5027500;28;20495;-85
2022/01/12 10:25:46;;;;;;;13.05;8.00;;;1.80;99.90;;;;;;5026485;28;20041;-84
2022/01/12 10:28:19;;;;;;;16.67;9.35;;;1.70;99.90;;;;;;5028155;28;20047;-85
2022/01/12 10:31:02;;;;;;;16.08;8.23;;;1.90;99.90;;;;;;5026560;28;20490;-85
2022/01/12 10:33:31;;;;;;;12.25;8.02;;;1.90;99.90;;;;;;5026009;28;20072;-84
2022/01/12 10:36:00;;;;;;;13.98;8.30;;;1.70;99.90;;;;;;5026297;28;20037;-85
2022/01/12 10:38:27;;;;;;;13.07;8.18;;;1.80;99.90;;;;;;5027533;28;20061;-85
2022/01/12 10:41:02;;;;;;;12.75;8.35;;;1.80;99.90;;;;;;5025352;28;20107;-82
2022/01/12 10:43:34;;;;;;;15.48;8.65;;;2.00;99.90;;;;;;5027344;28;20037;-80
2022/01/12 10:46:03;;;;;;;16.50;9.27;;;2.20;99.90;;;;;;5024413;28;20056;-84
2022/01/12 10:48:45;;;;;;;14.70;9.32;;;2.60;99.90;;;;;;5026053;28;20055;-83
2022/01/12 10:51:32;;;;;;;14.82;8.20;;;2.80;99.90;;;;;;5027563;28;20117;-82
2022/01/12 10:54:03;;;;;;;13.15;7.40;;;2.80;99.90;;;;;;5026524;28;20037;-85
2022/01/12 10:56:29;;;;;;;12.73;7.22;;;2.80;99.90;;;;;;5024577;28;20041;-83
2022/01/12 10:58:57;;;;;;;15.23;8.57;;;3.00;99.90;;;;;;5025358;28;20109;-88
2022/01/12 11:01:27;;;;;;;11.20;7.05;;;3.00;99.90;;;;;;5026810;28;20495;-85
2022/01/12 11:03:53;;;;;;;15.85;7.53;;;2.90;99.90;;;;;;5025121;28;20070;-85
2022/01/12 11:06:19;;;;;;;14.70;8.55;;;3.00;99.90;;;;;;5024138;28;20037;-86
2022/01/12 11:08:48;;;;;;;17.30;8.50;;;3.40;99.90;;;;;;5027037;28;20021;-86
2022/01/12 11:11:17;;;;;;;13.48;7.90;;;3.50;99.90;;;;;;5025415;28;20418;-85
2022/01/12 11:13:45;;;;;;;14.25;7.82;;;3.40;99.90;;;;;;5015666;28;20022;-83
2022/01/12 11:16:11;;;;;;;10.88;7.03;;;3.50;99.90;;;;;;5025056;28;20025;-88
2022/01/12 11:18:39;;;;;;;12.13;7.55;;;3.40;99.90;;;;;;5028785;28;20025;-88
2022/01/12 11:21:24;;;;;;;11.63;6.93;;;3.50;99.90;;;;;;5027191;28;20038;-90
2022/01/12 11:23:51;;;;;;;10.68;6.30;;;3.80;99.90;;;;;;5023588;28;20034;-85
2022/01/12 11:26:24;;;;;;;10.15;6.93;;;3.80;99.90;;;;;;5022488;28;20163;-89
2022/01/12 11:28:52;;;;;;;11.57;6.53;;;3.80;99.90;;;;;;5026567;28;20021;-85
2022/01/12 11:31:29;;;;;;;11.98;6.90;;;3.40;99.90;;;;;;5026665;28;20026;-85
2022/01/12 11:33:55;;;;;;;9.73;6.07;;;3.30;99.90;;;;;;5027408;28;20064;-89
2022/01/12 11:36:36;;;;;;;12.32;6.60;;;3.50;99.90;;;;;;5026930;28;20033;-87
2022/01/12 11:39:01;;;;;;;14.30;7.43;;;3.50;99.90;;;;;;5024418;28;20065;-83
2022/01/12 11:41:30;;;;;;;12.20;6.75;;;3.40;99.90;;;;;;5022312;28;20052;-86
2022/01/12 11:44:30;;;;;;;16.75;9.55;;;3.70;99.90;;;;;;5027614;28;20151;-85
2022/01/12 11:46:57;;;;;;;16.42;9.73;;;3.70;99.90;;;;;;5022140;28;20041;-86
2022/01/12 11:49:28;;;;;;;16.50;9.85;;;3.80;99.90;;;;;;5027465;28;20037;-81
2022/01/12 11:51:55;;;;;;;13.68;8.23;;;3.70;99.90;;;;;;5026292;28;20025;-80
2022/01/12 11:54:29;;;;;;;16.48;8.02;;;3.90;99.90;;;;;;5027659;28;20037;-80
2022/01/12 11:56:57;;;;;;;14.80;8.10;;;4.10;99.90;;;;;;5026508;28;20047;-80
2022/01/12 11:59:26;;;;;;;10.13;6.72;;;4.10;99.90;;;;;;5026831;28;20071;-81
2022/01/12 12:01:54;;;;;;;12.00;7.50;;;4.00;99.90;;;;;;5026456;28;20041;-80
2022/01/12 12:04:31;;;;;;;12.77;7.18;;;4.20;99.90;;;;;;5026083;28;20029;-80
2022/01/12 12:07:14;;;;;;;10.95;6.85;;;4.10;99.90;;;;;;5025452;28;20057;-80
2022/01/12 12:09:53;;;;;;;12.50;7.07;;;3.80;99.90;;;;;;5027862;28;20049;-80
2022/01/12 12:12:33;;;;;;;15.70;7.45;;;4.00;99.90;;;;;;5024637;28;20025;-79
2022/01/12 12:15:01;;;;;;;10.93;6.43;;;3.90;99.90;;;;;;5025413;28;20033;-80
2022/01/12 12:17:31;;;;;;;12.60;7.93;;;4.30;99.90;;;;;;5029515;28;20041;-79
2022/01/12 12:19:58;;;;;;;16.02;8.98;;;4.50;99.90;;;;;;5029962;28;20029;-79
2022/01/12 12:22:27;;;;;;;14.50;7.68;;;4.20;99.90;;;;;;5030926;28;20099;-79
2022/01/12 12:24:59;;;;;;;12.38;7.53;;;4.40;99.90;;;;;;5029538;28;20028;-79
2022/01/12 12:27:28;;;;;;;17.33;8.15;;;4.60;99.90;;;;;;5032210;28;20298;-85
2022/01/12 12:29:54;;;;;;;10.40;6.65;;;4.60;99.90;;;;;;5029661;28;20044;-87
2022/01/12 12:32:32;;;;;;;13.07;7.53;;;4.30;99.90;;;;;;5030489;28;20026;-83
2022/01/12 12:35:04;;;;;;;13.90;7.65;;;4.70;99.90;;;;;;5021127;28;20333;-85
2022/01/12 12:37:36;;;;;;;12.02;8.00;;;4.80;99.90;;;;;;5030383;28;20043;-90
2022/01/12 12:40:20;;;;;;;16.00;8.68;;;4.80;99.90;;;;;;5030340;28;20116;-90
2022/01/12 12:43:00;;;;;;;16.90;8.43;;;5.00;99.90;;;;;;5031283;28;20083;-89
2022/01/12 12:45:48;;;;;;;13.23;8.02;;;4.90;99.90;;;;;;5031496;28;20483;-87
2022/01/12 12:48:20;;;;;;;11.05;7.30;;;4.90;99.90;;;;;;5031893;28;20404;-88
2022/01/12 12:50:47;;;;;;;11.55;7.20;;;4.60;99.90;;;;;;5028865;28;20105;-90
2022/01/12 12:53:13;;;;;;;9.43;6.25;;;4.50;99.90;;;;;;5029545;28;20018;-89
2022/01/12 12:55:42;;;;;;;11.70;7.03;;;4.60;99.90;;;;;;5031958;28;20033;-90
2022/01/12 12:58:09;;;;;;;10.65;5.93;;;4.30;99.90;;;;;;5032592;28;20021;-89
2022/01/12 13:00:36;;;;;;;10.30;6.45;;;4.60;99.90;;;;;;5029508;28;20029;-89
2022/01/12 13:03:05;;;;;;;9.18;6.15;;;4.80;99.90;;;;;;5032334;28;20029;-90
2022/01/12 13:05:33;;;;;;;10.48;6.45;;;4.40;99.90;;;;;;5030838;28;20499;-91
2022/01/12 13:07:59;;;;;;;9.93;5.72;;;4.60;99.90;;;;;;5037069;28;20209;-90
2022/01/12 13:10:31;;;;;;;9.73;5.30;;;4.60;99.90;;;;;;5040328;28;20515;-88
2022/01/12 13:13:08;;;;;;;8.60;5.35;;;4.50;99.90;;;;;;5032178;28;20028;-88
2022/01/12 13:15:45;;;;;;;6.60;4.53;;;4.50;99.90;;;;;;5035274;28;20071;-90
2022/01/12 13:18:19;;;;;;;9.35;4.60;;;4.60;99.90;;;;;;5031651;28;20029;-90
2022/01/12 13:23:41;;;;;;;10.35;4.65;;;4.50;99.90;;;;;;5030649;28;20083;-89
2022/01/12 13:26:15;;;;;;;7.13;4.70;;;4.50;99.90;;;;;;5027050;28;20086;-91
2022/01/12 13:28:46;;;;;;;6.75;4.68;;;4.40;99.90;;;;;;5025327;28;20039;-90
2022/01/12 13:31:17;;;;;;;6.88;4.70;;;4.40;99.90;;;;;;5019892;28;20045;-89
2022/01/12 13:33:50;;;;;;;6.30;4.18;;;4.50;99.90;;;;;;5030762;28;20013;-90
2022/01/12 13:36:27;;;;;;;12.52;5.28;;;4.50;99.90;;;;;;5031642;28;20067;-90
2022/01/12 13:39:07;;;;;;;7.15;4.10;;;4.50;99.90;;;;;;5027875;28;20045;-88
2022/01/12 13:41:41;;;;;;;6.72;4.18;;;4.80;99.90;;;;;;5025613;28;20498;-86
2022/01/12 13:44:15;;;;;;;7.00;4.57;;;4.70;99.90;;;;;;5026588;28;20029;-90
2022/01/12 13:46:51;;;;;;;5.20;3.85;;;4.50;99.90;;;;;;5028946;28;20049;-91
2022/01/12 13:51:59;;;;;;;5.75;3.80;;;4.50;99.90;;;;;;5029627;28;20026;-87
2022/01/12 13:54:30;;;;;;;6.78;3.92;;;4.70;99.90;;;;;;5030248;28;20028;-90
2022/01/12 13:56:57;;;;;;;5.22;3.40;;;4.70;99.90;;;;;;5028849;28;20033;-88
2022/01/12 13:59:27;;;;;;;6.32;3.90;;;4.80;99.90;;;;;;5024888;28;20057;-86
2022/01/12 14:01:53;;;;;;;8.45;4.10;;;4.80;99.90;;;;;;5028707;28;20052;-91
2022/01/12 14:04:39;;;;;;;7.22;4.20;;;4.50;99.90;;;;;;5029910;28;20108;-89
2022/01/12 14:07:07;;;;;;;6.20;4.30;;;4.40;99.90;;;;;;5027988;28;20502;-90
2022/01/12 14:09:40;;;;;;;6.60;4.20;;;4.40;99.90;;;;;;5024188;28;20075;-84
2022/01/12 14:12:19;;;;;;;6.20;3.88;;;4.50;99.90;;;;;;5028948;28;20040;-88
2022/01/12 14:15:06;;;;;;;6.00;3.83;;;4.60;99.90;;;;;;5028466;28;20021;-88
2022/01/12 14:17:43;;;;;;;6.78;3.90;;;4.40;99.90;;;;;;5026402;28;20033;-90
2022/01/12 14:20:12;;;;;;;7.00;4.53;;;4.40;99.90;;;;;;5028863;28;20026;-90
2022/01/12 14:22:53;;;;;;;7.18;3.90;;;4.50;99.90;;;;;;5028332;28;20075;-90
2022/01/12 14:25:20;;;;;;;;;;;4.60;99.90;;;;;;5027684;28;20033;-89
2022/01/12 14:27:47;;;;;;;7.15;3.97;;;4.80;99.90;;;;;;5029608;28;20524;-85